Aeroporto :
LOGIN :

Iscrizione | Disclaimer

   EN    FR    IT 

 










Sommario :    VFR   VFR Marginale   IFR   IFR Intensivo   IFR Molto Intensivo
Visibilità : 
Base nubi : 
>= 8 km
>= 3000ft
5 / 8 km
1000 / 3000 ft
1500m / 5 km
500 / 1000 ft
800 / 1500m
200 / 500 ft
< 800m
< 200 ft
Simboli :   Temporali  Nebbia  Neve Forte  Precipitazioni Forti  Vento > 20 kt
SIGMETs :   Varie  Temporali  Ghiacco  Turbolenza  Onda orograficha  Ceneri Vulcaniche






- Altitudine del aeroporto : 286 ft
- Codice IATA : FFD


EGVA - RAF Fairford

ULTIMO METAR :
  • 021956Z AUTO 08003KT 9999 FEW049 BKN085 15/15 A2992 RMK AO2 SLP134 T01500148 $

METARs OBSOLETI :
  • 021856Z AUTO 10004KT 9999 SCT018 16/15 A2992 RMK AO2 SLP134 T01560146 $
  • 021756Z AUTO 11005KT 9999 CLR 16/15 A2992 RMK AO2 SLP134 60008 T01620149 10182 20153 57006 $

TAF AMD TAF EGVA
Valido dal 02 a 15 ore il 03 a 18 ore UTC


021530Z 0215/0318 VRB06KT 8000 -SHRA SCT040 BKN060 QNH2993INS
BECMG 0218/0219 09007KT 8000 -SHRA BKN015 OVC020 QNH2994INS
BECMG 0221/0222 00000KT 9999 NSW OVC010 QNH2991INS
BECMG 0301/0302 VRB06KT 8000 BR OVC010 QNH2993INS
BECMG 0308/0309 VRB06KT 8000 -SHRA BKN030 OVC040 QNH2987INS TX18/0312Z TN12/0303Z LAST NO AMDS AFT 0215 NEXT 0306



MetMap, La meteo Aeronautica in un colpo d'occhio ! - Copyright ORBIFLY Dicembre 2007 - Disclaimer

ORBIFLY MET'MAP TEAM :

Programmazione e sviluppo : Alexandra Zaïnal
Concezione : Baudouin d'Aumeries
Aiuto per la programmazione : Marc-Olivier Méhu
Supporto tecnico e logistico : Manuel Goepfert
Aiuto per la traduzione : Arnaldo La Scala

Contatto : metmap@orbifly.com




FONTI E CREDITI :

   NOAA